createdAt,value
2022-09-27T00:01:15.718Z,13.90
2022-09-27T00:03:44.231Z,13.87
2022-09-27T00:06:20.620Z,13.85
2022-09-27T00:08:48.831Z,13.83
2022-09-27T00:11:40.537Z,13.80
2022-09-27T00:14:14.713Z,13.76
2022-09-27T00:16:44.447Z,13.72
2022-09-27T00:19:20.301Z,13.70
2022-09-27T00:21:50.155Z,13.70
2022-09-27T00:24:22.820Z,13.76
2022-09-27T00:26:50.992Z,13.82
2022-09-27T00:29:20.043Z,13.86
2022-09-27T00:31:48.661Z,13.91
2022-09-27T00:34:23.738Z,13.96
2022-09-27T00:36:53.312Z,14.00
2022-09-27T00:39:21.735Z,14.04
2022-09-27T00:41:50.078Z,14.06
2022-09-27T00:44:27.046Z,14.10
2022-09-27T00:46:55.831Z,14.15
2022-09-27T00:50:02.585Z,14.17
2022-09-27T00:52:32.886Z,14.20
2022-09-27T00:55:11.331Z,14.22
2022-09-27T00:57:42.602Z,14.23
2022-09-27T01:00:15.195Z,14.27
2022-09-27T01:02:51.883Z,14.30
2022-09-27T01:05:24.623Z,14.32
2022-09-27T01:07:57.097Z,14.33
2022-09-27T01:10:41.027Z,14.34
2022-09-27T01:13:23.756Z,14.33
2022-09-27T01:16:19.910Z,14.33
2022-09-27T01:19:20.829Z,14.35
2022-09-27T01:22:13.410Z,14.37
2022-09-27T01:25:12.122Z,14.38
2022-09-27T01:28:20.123Z,14.39
2022-09-27T01:31:04.102Z,14.40
2022-09-27T01:33:57.854Z,14.40
2022-09-27T01:36:38.584Z,14.41
2022-09-27T01:39:20.116Z,14.41
2022-09-27T01:42:55.458Z,14.40
2022-09-27T01:45:35.283Z,14.40
2022-09-27T01:48:30.980Z,14.40
2022-09-27T01:51:10.739Z,14.40
2022-09-27T01:53:51.723Z,14.39
2022-09-27T01:56:55.479Z,14.38
2022-09-27T02:00:02.033Z,14.37
2022-09-27T02:02:57.353Z,14.38
2022-09-27T02:05:43.118Z,14.37
2022-09-27T02:08:53.841Z,14.37
2022-09-27T02:11:31.986Z,14.39
2022-09-27T02:14:32.571Z,14.40
2022-09-27T02:17:07.636Z,14.40
2022-09-27T02:19:57.487Z,14.41
2022-09-27T02:22:54.880Z,14.40
2022-09-27T02:26:03.028Z,14.40
2022-09-27T02:28:36.819Z,14.40
2022-09-27T02:31:06.281Z,14.40
2022-09-27T02:33:45.138Z,14.41
2022-09-27T02:36:13.849Z,14.41
2022-09-27T02:38:44.012Z,14.43
2022-09-27T02:41:21.845Z,14.44
2022-09-27T02:43:59.817Z,14.43
2022-09-27T02:47:03.486Z,14.43
2022-09-27T02:50:19.396Z,14.42
2022-09-27T02:53:08.168Z,14.41
2022-09-27T02:56:28.400Z,14.40
2022-09-27T02:59:49.929Z,14.42
2022-09-27T03:02:50.715Z,14.40
2022-09-27T03:06:07.788Z,14.39
2022-09-27T03:08:38.717Z,14.37
2022-09-27T03:11:07.746Z,14.37
2022-09-27T03:13:55.877Z,14.37
2022-09-27T03:16:27.734Z,14.39
2022-09-27T03:19:09.925Z,14.40
2022-09-27T03:22:25.232Z,14.41
2022-09-27T03:24:53.596Z,14.40
2022-09-27T03:27:22.178Z,14.39
2022-09-27T03:29:50.403Z,14.40
2022-09-27T03:32:19.162Z,14.40
2022-09-27T03:35:43.813Z,14.38
2022-09-27T03:38:12.758Z,14.36
2022-09-27T03:40:41.045Z,14.36
2022-09-27T03:43:09.403Z,14.36
2022-09-27T03:45:37.670Z,14.36
2022-09-27T03:48:08.441Z,14.37
2022-09-27T03:50:36.941Z,14.38
2022-09-27T03:53:06.271Z,14.36
2022-09-27T03:55:35.362Z,14.35
2022-09-27T03:58:03.793Z,14.33
2022-09-27T04:00:36.271Z,14.32
2022-09-27T04:03:05.380Z,14.30
2022-09-27T04:05:52.182Z,14.26
2022-09-27T04:08:23.208Z,14.25
2022-09-27T04:10:51.568Z,14.28
2022-09-27T04:13:20.575Z,14.30
2022-09-27T04:15:54.378Z,14.26
2022-09-27T04:18:44.316Z,14.19
2022-09-27T04:21:35.331Z,14.11
2022-09-27T04:24:05.502Z,14.05
2022-09-27T04:26:34.172Z,13.99
2022-09-27T04:29:04.184Z,13.92
2022-09-27T04:31:33.424Z,13.87
2022-09-27T04:34:46.038Z,13.80
2022-09-27T04:37:16.334Z,13.72
2022-09-27T04:39:49.465Z,13.65
2022-09-27T04:42:18.838Z,13.61
2022-09-27T04:44:48.037Z,13.57
2022-09-27T04:47:17.439Z,13.56
2022-09-27T04:49:45.676Z,13.55
2022-09-27T04:52:15.533Z,13.55
2022-09-27T04:54:44.035Z,13.54
2022-09-27T04:57:14.587Z,13.53
2022-09-27T04:59:44.384Z,13.53
2022-09-27T05:02:13.358Z,13.52
2022-09-27T05:05:07.986Z,13.51
2022-09-27T05:07:39.916Z,13.47
2022-09-27T05:10:12.122Z,13.38
2022-09-27T05:12:40.924Z,13.31
2022-09-27T05:15:10.324Z,13.28
2022-09-27T05:17:41.315Z,13.27
2022-09-27T05:20:40.045Z,13.25
2022-09-27T05:23:16.180Z,13.19
2022-09-27T05:25:44.844Z,13.15
2022-09-27T05:28:13.094Z,13.12
2022-09-27T05:30:42.219Z,13.08
2022-09-27T05:33:14.637Z,13.07
2022-09-27T05:35:57.281Z,13.04
2022-09-27T05:38:29.151Z,13.05
2022-09-27T05:40:58.861Z,13.11
2022-09-27T05:43:28.453Z,13.16
2022-09-27T05:45:59.078Z,13.16
2022-09-27T05:48:30.457Z,13.16
2022-09-27T05:51:02.609Z,13.14
2022-09-27T05:53:32.567Z,13.23
2022-09-27T05:56:04.167Z,13.31
2022-09-27T05:58:44.176Z,13.35
2022-09-27T06:01:18.209Z,13.42
2022-09-27T06:04:33.263Z,13.47
2022-09-27T06:07:20.669Z,13.54
2022-09-27T06:09:49.009Z,13.59
2022-09-27T06:12:18.163Z,13.68
2022-09-27T06:14:46.441Z,13.78
2022-09-27T06:17:20.030Z,13.89
2022-09-27T06:19:49.439Z,13.98
2022-09-27T06:22:17.648Z,14.07
2022-09-27T06:24:55.172Z,14.16
2022-09-27T06:27:26.551Z,14.22
2022-09-27T06:30:23.181Z,14.31
2022-09-27T06:33:03.116Z,14.36
2022-09-27T06:35:42.709Z,14.42
2022-09-27T06:38:16.479Z,14.47
2022-09-27T06:40:51.128Z,14.53
2022-09-27T06:43:31.926Z,14.58
2022-09-27T06:46:18.850Z,14.64
2022-09-27T06:48:56.911Z,14.67
2022-09-27T06:51:25.276Z,14.69
2022-09-27T06:53:53.503Z,14.71
2022-09-27T06:56:22.108Z,14.74
2022-09-27T06:59:12.344Z,14.76
2022-09-27T07:01:45.541Z,14.78
2022-09-27T07:04:29.025Z,14.81
2022-09-27T07:07:06.287Z,14.85
2022-09-27T07:09:40.265Z,14.89
2022-09-27T07:12:08.807Z,14.93
2022-09-27T07:14:37.061Z,14.96
2022-09-27T07:17:06.447Z,14.99
2022-09-27T07:19:38.880Z,15.07
2022-09-27T07:22:08.819Z,15.12
2022-09-27T07:24:37.205Z,15.16
2022-09-27T07:27:06.744Z,15.22
2022-09-27T07:29:35.248Z,15.28
2022-09-27T07:32:04.473Z,15.35
2022-09-27T07:34:35.732Z,15.43
2022-09-27T07:37:05.618Z,15.51
2022-09-27T07:39:37.914Z,15.59
2022-09-27T07:42:06.338Z,15.66
2022-09-27T07:44:36.200Z,15.74
2022-09-27T07:47:48.808Z,15.86
2022-09-27T07:50:23.923Z,15.97
2022-09-27T07:52:59.002Z,16.06
2022-09-27T07:56:16.935Z,16.15
2022-09-27T07:58:45.224Z,16.18
2022-09-27T08:01:14.275Z,16.24
2022-09-27T08:03:42.744Z,16.28
2022-09-27T08:06:11.079Z,16.30
2022-09-27T08:08:39.636Z,16.33
2022-09-27T08:11:16.655Z,16.34
2022-09-27T08:13:46.335Z,16.36
2022-09-27T08:16:14.909Z,16.36
2022-09-27T08:19:02.042Z,16.36
2022-09-27T08:22:21.343Z,16.38
2022-09-27T08:25:02.804Z,16.41
2022-09-27T08:28:17.545Z,16.42
2022-09-27T08:30:54.923Z,16.43
2022-09-27T08:33:31.327Z,16.45
2022-09-27T08:36:02.006Z,16.43
2022-09-27T08:38:30.300Z,16.35
2022-09-27T08:41:35.132Z,16.29
2022-09-27T08:44:22.883Z,16.35
2022-09-27T08:47:20.864Z,16.43
2022-09-27T08:50:27.150Z,16.46
2022-09-27T08:53:25.756Z,16.50
2022-09-27T08:56:00.118Z,16.53
2022-09-27T08:59:02.571Z,16.52
2022-09-27T09:01:35.937Z,16.55
2022-09-27T09:04:11.223Z,16.58
2022-09-27T09:06:49.311Z,16.63
2022-09-27T09:09:39.010Z,16.73
2022-09-27T09:12:47.333Z,16.82
2022-09-27T09:15:56.966Z,16.75
2022-09-27T09:18:50.203Z,16.57
2022-09-27T09:22:26.104Z,16.44
2022-09-27T09:25:23.012Z,16.37
2022-09-27T09:28:09.338Z,16.32
2022-09-27T09:31:35.926Z,16.28
2022-09-27T09:34:20.580Z,16.22
2022-09-27T09:37:10.891Z,16.16
2022-09-27T09:39:45.642Z,16.15
2022-09-27T09:43:20.298Z,16.13
2022-09-27T09:46:02.610Z,16.10
2022-09-27T09:48:46.956Z,16.17
2022-09-27T09:51:27.617Z,16.26
2022-09-27T09:54:22.364Z,16.35
2022-09-27T09:57:17.015Z,16.44
2022-09-27T10:00:14.652Z,16.51
2022-09-27T10:02:49.123Z,16.59
2022-09-27T10:05:24.107Z,16.64
2022-09-27T10:08:03.501Z,16.71
2022-09-27T10:10:32.096Z,16.76
2022-09-27T10:13:56.577Z,16.84
2022-09-27T10:16:28.965Z,16.87
2022-09-27T10:19:03.364Z,16.93
2022-09-27T10:21:34.222Z,17.00
2022-09-27T10:24:19.169Z,17.06
2022-09-27T10:27:08.725Z,17.11
2022-09-27T10:29:39.310Z,17.14
2022-09-27T10:32:31.513Z,17.19
2022-09-27T10:35:30.436Z,17.33
2022-09-27T10:38:29.998Z,17.38
2022-09-27T10:41:33.036Z,17.43
2022-09-27T10:44:18.003Z,17.49
2022-09-27T10:46:53.440Z,17.52
2022-09-27T10:50:08.081Z,17.55
2022-09-27T10:53:23.009Z,17.58
2022-09-27T10:56:05.088Z,17.61
2022-09-27T10:58:38.156Z,17.66
2022-09-27T11:01:12.336Z,17.71
2022-09-27T11:04:38.803Z,17.74
2022-09-27T11:07:20.153Z,17.74
2022-09-27T11:10:22.785Z,17.73
2022-09-27T11:13:20.524Z,17.71
2022-09-27T11:16:28.903Z,17.67
2022-09-27T11:19:04.122Z,17.63
2022-09-27T11:21:41.599Z,17.58
2022-09-27T11:24:28.674Z,17.53
2022-09-27T11:27:44.726Z,17.51
2022-09-27T11:30:18.333Z,17.47
2022-09-27T11:33:54.671Z,17.45
2022-09-27T11:36:54.375Z,17.43
2022-09-27T11:39:37.960Z,17.45
2022-09-27T11:42:35.718Z,17.51
2022-09-27T11:45:50.327Z,17.58
2022-09-27T11:48:30.923Z,17.64
2022-09-27T11:51:05.103Z,17.69
2022-09-27T11:53:59.412Z,17.74
2022-09-27T11:56:37.454Z,17.76
2022-09-27T11:59:42.910Z,17.76
2022-09-27T12:02:41.854Z,17.76
2022-09-27T12:06:07.007Z,17.75
2022-09-27T12:09:03.075Z,17.73
2022-09-27T12:12:11.686Z,17.72
2022-09-27T12:14:52.657Z,17.74
2022-09-27T12:17:29.860Z,17.78
2022-09-27T12:20:03.890Z,17.79
2022-09-27T12:23:04.919Z,17.80
2022-09-27T12:26:03.520Z,17.81
2022-09-27T12:28:40.984Z,17.80
2022-09-27T12:31:31.783Z,17.78
2022-09-27T12:34:20.188Z,17.74
2022-09-27T12:37:28.658Z,17.71
2022-09-27T12:40:38.882Z,17.68
2022-09-27T12:43:20.912Z,17.68
2022-09-27T12:46:17.869Z,17.73
2022-09-27T12:49:01.154Z,17.82
2022-09-27T12:51:39.673Z,17.95
2022-09-27T12:55:05.885Z,18.08
2022-09-27T12:57:36.852Z,18.20
2022-09-27T13:00:34.191Z,18.24
2022-09-27T13:03:26.606Z,18.27
2022-09-27T13:06:33.769Z,18.28
2022-09-27T13:09:17.512Z,18.24
2022-09-27T13:12:14.499Z,18.22
2022-09-27T13:14:54.619Z,18.27
2022-09-27T13:17:41.063Z,18.28
2022-09-27T13:20:35.819Z,18.25
2022-09-27T13:23:20.743Z,18.20
2022-09-27T13:26:00.950Z,18.14
2022-09-27T13:28:50.233Z,18.09
2022-09-27T13:31:57.894Z,18.08
2022-09-27T13:35:27.267Z,18.10
2022-09-27T13:38:24.284Z,18.17
2022-09-27T13:40:54.110Z,18.27
2022-09-27T13:43:51.974Z,18.34
2022-09-27T13:46:29.537Z,18.33
2022-09-27T13:49:01.558Z,18.28
2022-09-27T13:52:14.679Z,18.24
2022-09-27T13:54:55.865Z,18.19
2022-09-27T13:57:57.212Z,18.14
2022-09-27T14:00:39.053Z,18.10
2022-09-27T14:03:13.348Z,18.12
2022-09-27T14:05:59.637Z,18.16
2022-09-27T14:08:49.331Z,18.18
2022-09-27T14:11:36.484Z,18.20
2022-09-27T14:14:07.680Z,18.22
2022-09-27T14:16:46.219Z,18.24
2022-09-27T14:19:19.698Z,18.28
2022-09-27T14:21:56.947Z,18.31
2022-09-27T14:24:46.754Z,18.33
2022-09-27T14:27:30.005Z,18.34
2022-09-27T14:30:22.728Z,18.34
2022-09-27T14:33:34.981Z,18.34
2022-09-27T14:36:35.840Z,18.33
2022-09-27T14:39:20.979Z,18.33
2022-09-27T14:41:49.251Z,18.30
2022-09-27T14:44:24.801Z,18.27
2022-09-27T14:47:26.331Z,18.21
2022-09-27T14:50:17.144Z,18.18
2022-09-27T14:52:45.289Z,18.15
2022-09-27T14:55:20.512Z,18.13
2022-09-27T14:58:04.696Z,18.12
2022-09-27T15:00:36.468Z,18.12
2022-09-27T15:03:09.993Z,18.11
2022-09-27T15:05:43.132Z,18.13
2022-09-27T15:08:15.304Z,18.14
2022-09-27T15:10:44.465Z,18.16
2022-09-27T15:13:18.795Z,18.15
2022-09-27T15:15:49.316Z,18.11
2022-09-27T15:18:46.691Z,18.07
2022-09-27T15:21:37.347Z,18.00
2022-09-27T15:24:05.929Z,17.95
2022-09-27T15:26:45.283Z,17.90
2022-09-27T15:29:26.599Z,17.83
2022-09-27T15:32:07.108Z,17.76
2022-09-27T15:34:37.282Z,17.69
2022-09-27T15:37:08.578Z,17.64
2022-09-27T15:39:41.600Z,17.58
2022-09-27T15:42:17.746Z,17.52
2022-09-27T15:44:51.472Z,17.46
2022-09-27T15:47:34.613Z,17.41
2022-09-27T15:50:17.535Z,17.35
2022-09-27T15:52:51.952Z,17.27
2022-09-27T15:55:25.253Z,17.22
2022-09-27T15:57:59.288Z,17.18
2022-09-27T16:00:28.081Z,17.13
2022-09-27T16:02:57.017Z,17.09
2022-09-27T16:05:27.059Z,17.05
2022-09-27T16:07:55.652Z,17.02
2022-09-27T16:10:37.310Z,16.98
2022-09-27T16:13:05.564Z,16.94
2022-09-27T16:15:33.690Z,16.90
2022-09-27T16:18:01.751Z,16.87
2022-09-27T16:20:30.037Z,16.82
2022-09-27T16:22:58.708Z,16.79
2022-09-27T16:25:27.179Z,16.76
2022-09-27T16:28:00.650Z,16.73
2022-09-27T16:30:30.021Z,16.71
2022-09-27T16:32:59.316Z,16.68
2022-09-27T16:35:28.728Z,16.65
2022-09-27T16:37:58.422Z,16.61
2022-09-27T16:40:28.352Z,16.57
2022-09-27T16:42:56.643Z,16.53
2022-09-27T16:45:32.782Z,16.51
2022-09-27T16:48:01.366Z,16.49
2022-09-27T16:50:48.078Z,16.46
2022-09-27T16:53:16.151Z,16.43
2022-09-27T16:55:44.300Z,16.39
2022-09-27T16:58:12.392Z,16.36
2022-09-27T17:00:42.151Z,16.32
2022-09-27T17:03:10.335Z,16.29
2022-09-27T17:05:38.476Z,16.28
2022-09-27T17:08:06.597Z,16.26
2022-09-27T17:10:35.940Z,16.24
2022-09-27T17:13:04.076Z,16.22
2022-09-27T17:15:32.440Z,16.28
2022-09-27T17:18:00.578Z,16.33
2022-09-27T17:20:28.954Z,16.37
2022-09-27T17:22:57.079Z,16.41
2022-09-27T17:25:25.294Z,16.46
2022-09-27T17:27:53.388Z,16.50
2022-09-27T17:30:21.548Z,16.54
2022-09-27T17:32:50.400Z,16.58
2022-09-27T17:35:18.568Z,16.60
2022-09-27T17:37:46.753Z,16.63
2022-09-27T17:40:16.335Z,16.65
2022-09-27T17:42:44.469Z,16.65
2022-09-27T17:45:12.572Z,16.64
2022-09-27T17:47:59.217Z,16.65
2022-09-27T17:50:28.729Z,16.65
2022-09-27T17:52:58.857Z,16.65
2022-09-27T17:55:27.702Z,16.67
2022-09-27T17:57:56.168Z,16.67
2022-09-27T18:00:24.326Z,16.65
2022-09-27T18:02:53.072Z,16.63
2022-09-27T18:05:21.796Z,16.62
2022-09-27T18:07:50.034Z,16.63
2022-09-27T18:10:18.387Z,16.64
2022-09-27T18:12:46.464Z,16.67
2022-09-27T18:15:21.069Z,16.71
2022-09-27T18:17:57.901Z,16.73
2022-09-27T18:20:26.463Z,16.75
2022-09-27T18:22:54.658Z,16.78
2022-09-27T18:25:25.212Z,16.80
2022-09-27T18:27:55.658Z,16.80
2022-09-27T18:30:23.783Z,16.80
2022-09-27T18:32:53.189Z,16.80
2022-09-27T18:35:22.095Z,16.82
2022-09-27T18:37:50.267Z,16.83
2022-09-27T18:40:32.365Z,16.85
2022-09-27T18:43:00.887Z,16.86
2022-09-27T18:45:29.008Z,16.86
2022-09-27T18:47:57.414Z,16.85
2022-09-27T18:50:25.512Z,16.82
2022-09-27T18:52:53.642Z,16.79
2022-09-27T18:55:25.270Z,16.77
2022-09-27T18:57:54.252Z,16.75
2022-09-27T19:00:22.485Z,16.71
2022-09-27T19:02:50.598Z,16.68
2022-09-27T19:05:18.711Z,16.66
2022-09-27T19:07:47.652Z,16.63
2022-09-27T19:10:15.789Z,16.61
2022-09-27T19:12:43.894Z,16.59
2022-09-27T19:15:11.977Z,16.57
2022-09-27T19:17:40.095Z,16.55
2022-09-27T19:20:09.720Z,16.53
2022-09-27T19:22:37.768Z,16.50
2022-09-27T19:25:07.369Z,16.48
2022-09-27T19:27:41.306Z,16.45
2022-09-27T19:30:12.835Z,16.42
2022-09-27T19:32:41.047Z,16.40
2022-09-27T19:35:11.485Z,16.37
2022-09-27T19:37:41.129Z,16.35
2022-09-27T19:40:09.475Z,16.31
2022-09-27T19:42:37.585Z,16.28
2022-09-27T19:45:11.481Z,16.25
2022-09-27T19:47:39.952Z,16.22
2022-09-27T19:50:08.809Z,16.18
2022-09-27T19:52:37.045Z,16.14
2022-09-27T19:55:06.229Z,16.12
2022-09-27T19:57:34.336Z,16.08
2022-09-27T20:00:02.436Z,16.04
2022-09-27T20:02:32.825Z,16.00
2022-09-27T20:05:01.125Z,15.96
2022-09-27T20:07:29.537Z,15.93
2022-09-27T20:09:57.642Z,15.88
2022-09-27T20:12:25.713Z,15.85
2022-09-27T20:14:53.787Z,15.82
2022-09-27T20:17:21.955Z,15.78
2022-09-27T20:19:50.010Z,15.74
2022-09-27T20:22:18.118Z,15.71
2022-09-27T20:24:46.177Z,15.68
2022-09-27T20:27:14.241Z,15.65
2022-09-27T20:29:42.357Z,15.62
2022-09-27T20:32:26.626Z,15.59
2022-09-27T20:34:56.285Z,15.56
2022-09-27T20:37:24.382Z,15.53
2022-09-27T20:39:53.247Z,15.49
2022-09-27T20:42:21.595Z,15.45
2022-09-27T20:44:53.430Z,15.42
2022-09-27T20:47:23.142Z,15.38
2022-09-27T20:49:51.287Z,15.36
2022-09-27T20:52:19.754Z,15.34
2022-09-27T20:54:47.858Z,15.33
2022-09-27T20:57:15.945Z,15.33
2022-09-27T20:59:44.094Z,15.32
2022-09-27T21:02:12.216Z,15.31
2022-09-27T21:04:41.013Z,15.29
2022-09-27T21:07:09.063Z,15.26
2022-09-27T21:09:38.858Z,15.24
2022-09-27T21:12:07.274Z,15.27
2022-09-27T21:14:35.498Z,15.33
2022-09-27T21:17:03.618Z,15.37
2022-09-27T21:19:31.709Z,15.38
2022-09-27T21:21:59.796Z,15.40
2022-09-27T21:24:27.880Z,15.41
2022-09-27T21:26:57.749Z,15.43
2022-09-27T21:29:25.848Z,15.44
2022-09-27T21:31:53.988Z,15.44
2022-09-27T21:34:22.109Z,15.46
2022-09-27T21:36:50.197Z,15.48
2022-09-27T21:39:18.337Z,15.50
2022-09-27T21:41:46.541Z,15.52
2022-09-27T21:44:14.600Z,15.53
2022-09-27T21:46:43.554Z,15.55
2022-09-27T21:49:11.817Z,15.58
2022-09-27T21:51:42.370Z,15.59
2022-09-27T21:54:14.900Z,15.58
2022-09-27T21:56:44.450Z,15.58
2022-09-27T21:59:15.688Z,15.57
2022-09-27T22:01:46.191Z,15.59
2022-09-27T22:04:14.815Z,15.58
2022-09-27T22:06:43.240Z,15.57
2022-09-27T22:09:17.351Z,15.57
2022-09-27T22:11:47.726Z,15.57
2022-09-27T22:14:19.934Z,15.57
2022-09-27T22:16:48.772Z,15.58
2022-09-27T22:19:17.057Z,15.55
2022-09-27T22:21:45.921Z,15.54
2022-09-27T22:24:18.393Z,15.53
2022-09-27T22:26:50.227Z,15.52
2022-09-27T22:29:19.096Z,15.51
2022-09-27T22:31:48.059Z,15.52
2022-09-27T22:34:27.953Z,15.52
2022-09-27T22:36:58.714Z,15.52
2022-09-27T22:39:27.319Z,15.52
2022-09-27T22:41:55.530Z,15.51
2022-09-27T22:44:24.206Z,15.49
2022-09-27T22:46:52.369Z,15.48
2022-09-27T22:49:20.450Z,15.47
2022-09-27T22:51:48.572Z,15.44
2022-09-27T22:54:16.665Z,15.40
2022-09-27T22:56:44.784Z,15.38
2022-09-27T22:59:12.872Z,15.35
2022-09-27T23:01:41.421Z,15.31
2022-09-27T23:04:09.581Z,15.28
2022-09-27T23:06:40.062Z,15.23
2022-09-27T23:09:09.799Z,15.16
2022-09-27T23:11:38.246Z,15.13
2022-09-27T23:14:08.209Z,15.09
2022-09-27T23:16:38.131Z,15.08
2022-09-27T23:19:07.666Z,15.06
2022-09-27T23:21:36.143Z,15.03
2022-09-27T23:24:04.374Z,14.99
2022-09-27T23:26:32.764Z,14.93
2022-09-27T23:29:02.638Z,14.86
2022-09-27T23:31:32.875Z,14.76
2022-09-27T23:34:04.791Z,14.67
2022-09-27T23:36:34.386Z,14.56
2022-09-27T23:39:02.507Z,14.47
2022-09-27T23:41:30.605Z,14.37
2022-09-27T23:43:58.680Z,14.29
2022-09-27T23:46:26.869Z,14.22
2022-09-27T23:48:58.959Z,14.16
2022-09-27T23:51:27.167Z,14.09
2022-09-27T23:53:57.205Z,14.01
2022-09-27T23:56:26.089Z,13.94
2022-09-27T23:58:54.228Z,13.90
